createdAt,value
2019-06-10T00:00:50.809Z,89.4
2019-06-10T00:01:51.402Z,89.1
2019-06-10T00:02:52.343Z,89.7
2019-06-10T00:03:53.711Z,90.2
2019-06-10T00:04:55.549Z,90.7
2019-06-10T00:05:57.631Z,90.6
2019-06-10T00:06:57.817Z,90.3
2019-06-10T00:08:01.147Z,89.9
2019-06-10T00:09:03.132Z,90.1
2019-06-10T00:10:03.815Z,90.0
2019-06-10T00:11:04.986Z,91.1
2019-06-10T00:12:05.739Z,91.8
2019-06-10T00:13:06.942Z,91.1
2019-06-10T00:14:07.420Z,91.5
2019-06-10T00:15:10.691Z,91.5
2019-06-10T00:16:11.484Z,91.6
2019-06-10T00:17:11.216Z,91.8
2019-06-10T00:18:34.186Z,92.2
2019-06-10T00:19:13.818Z,91.8
2019-06-10T00:20:15.189Z,91.6
2019-06-10T00:21:16.565Z,91.9
2019-06-10T00:22:17.934Z,91.9
2019-06-10T00:23:21.020Z,91.6
2019-06-10T00:24:21.103Z,91.1
2019-06-10T00:25:21.980Z,91.1
2019-06-10T00:26:23.351Z,90.9
2019-06-10T00:27:24.720Z,90.8
2019-06-10T00:28:26.091Z,90.0
2019-06-10T00:29:27.462Z,90.2
2019-06-10T00:30:31.186Z,89.8
2019-06-10T00:31:31.254Z,89.5
2019-06-10T00:32:31.981Z,88.7
2019-06-10T00:33:32.838Z,88.9
2019-06-10T00:34:35.119Z,88.7
2019-06-10T00:35:35.545Z,89.2
2019-06-10T00:36:36.916Z,88.4
2019-06-10T00:37:38.285Z,88.3
2019-06-10T00:38:41.207Z,88.4
2019-06-10T00:39:41.001Z,89.1
2019-06-10T00:40:42.363Z,88.9
2019-06-10T00:41:43.734Z,90.2
2019-06-10T00:42:45.103Z,90.0
2019-06-10T00:43:46.472Z,90.7
2019-06-10T00:44:47.846Z,90.5
2019-06-10T00:45:51.162Z,90.9
2019-06-10T00:46:51.657Z,90.6
2019-06-10T00:48:06.667Z,90.3
2019-06-10T00:48:53.228Z,90.5
2019-06-10T00:49:54.601Z,91.3
2019-06-10T00:50:55.973Z,90.5
2019-06-10T00:51:57.345Z,90.7
2019-06-10T00:53:00.918Z,90.1
2019-06-10T00:54:03.379Z,89.8
2019-06-10T00:55:02.925Z,89.9
2019-06-10T00:56:04.867Z,89.9
2019-06-10T00:57:05.469Z,89.5
2019-06-10T00:58:05.774Z,89.1
2019-06-10T00:59:07.735Z,88.8
2019-06-10T01:00:17.026Z,88.5
2019-06-10T01:01:11.446Z,88.0
2019-06-10T01:02:12.478Z,88.0
2019-06-10T01:03:14.988Z,88.0
2019-06-10T01:04:16.169Z,87.9
2019-06-10T01:05:15.246Z,88.2
2019-06-10T01:06:16.105Z,88.3
2019-06-10T01:07:17.464Z,88.0
2019-06-10T01:08:21.242Z,88.4
2019-06-10T01:09:21.922Z,88.5
2019-06-10T01:10:21.499Z,88.4
2019-06-10T01:11:26.963Z,88.8
2019-06-10T01:12:24.269Z,88.5
2019-06-10T01:13:25.643Z,88.7
2019-06-10T01:14:27.009Z,88.5
2019-06-10T01:15:31.010Z,88.4
2019-06-10T01:16:31.643Z,88.3
2019-06-10T01:17:31.123Z,88.6
2019-06-10T01:18:38.142Z,87.4
2019-06-10T01:19:33.724Z,86.9
2019-06-10T01:20:35.090Z,87.2
2019-06-10T01:21:36.461Z,87.7
2019-06-10T01:22:37.827Z,87.7
2019-06-10T01:23:41.488Z,88.0
2019-06-10T01:24:40.759Z,88.2
2019-06-10T01:25:42.363Z,88.6
2019-06-10T01:26:43.207Z,89.5
2019-06-10T01:27:44.578Z,89.7
2019-06-10T01:28:45.948Z,89.4
2019-06-10T01:29:47.318Z,89.8
2019-06-10T01:30:48.684Z,89.5
2019-06-10T01:31:51.230Z,89.4
2019-06-10T01:32:51.390Z,89.0
2019-06-10T01:33:52.758Z,89.4
2019-06-10T01:34:54.128Z,89.9
2019-06-10T01:35:55.502Z,89.4
2019-06-10T01:36:56.870Z,88.9
2019-06-10T01:37:58.241Z,88.4
2019-06-10T01:39:01.398Z,89.4
2019-06-10T01:40:00.947Z,89.4
2019-06-10T01:41:02.313Z,89.7
2019-06-10T01:42:03.687Z,90.1
2019-06-10T01:43:06.109Z,90.4
2019-06-10T01:44:06.444Z,90.8
2019-06-10T01:45:08.502Z,90.8
2019-06-10T01:46:11.037Z,92.0
2019-06-10T01:47:11.821Z,91.5
2019-06-10T01:48:13.805Z,92.5
2019-06-10T01:49:14.532Z,92.9
2019-06-10T01:50:15.952Z,93.1
2019-06-10T01:51:15.966Z,93.5
2019-06-10T01:52:18.302Z,93.2
2019-06-10T01:53:18.855Z,93.2
2019-06-10T01:54:21.331Z,93.1
2019-06-10T01:55:21.868Z,93.3
2019-06-10T01:56:22.406Z,93.7
2019-06-10T01:57:23.779Z,94.2
2019-06-10T01:58:25.153Z,93.2
2019-06-10T01:59:26.519Z,93.5
2019-06-10T02:00:27.888Z,92.4
2019-06-10T02:01:30.675Z,92.3
2019-06-10T02:02:35.001Z,91.9
2019-06-10T02:03:31.936Z,92.5
2019-06-10T02:04:33.306Z,92.3
2019-06-10T02:05:34.671Z,92.8
2019-06-10T02:06:36.040Z,93.0
2019-06-10T02:07:37.409Z,93.4
2019-06-10T02:08:38.782Z,93.5
2019-06-10T02:09:41.095Z,93.0
2019-06-10T02:10:41.667Z,92.4
2019-06-10T02:11:42.817Z,91.7
2019-06-10T02:12:44.186Z,91.1
2019-06-10T02:13:45.558Z,91.0
2019-06-10T02:14:46.931Z,90.1
2019-06-10T02:15:48.293Z,90.7
2019-06-10T02:16:50.690Z,91.8
2019-06-10T02:17:51.093Z,92.2
2019-06-10T02:19:00.185Z,91.9
2019-06-10T02:19:53.663Z,91.6
2019-06-10T02:20:55.035Z,91.2
2019-06-10T02:21:56.408Z,91.4
2019-06-10T02:22:57.777Z,91.8
2019-06-10T02:24:00.886Z,92.2
2019-06-10T02:25:01.275Z,92.0
2019-06-10T02:26:02.013Z,91.9
2019-06-10T02:27:03.153Z,91.3
2019-06-10T02:28:04.523Z,91.7
2019-06-10T02:29:05.890Z,91.8
2019-06-10T02:30:14.786Z,91.9
2019-06-10T02:31:08.597Z,90.9
2019-06-10T02:32:13.259Z,92.2
2019-06-10T02:33:12.714Z,92.2
2019-06-10T02:34:17.038Z,92.5
2019-06-10T02:35:23.997Z,93.4
2019-06-10T02:36:18.176Z,93.4
2019-06-10T02:37:20.192Z,92.6
2019-06-10T02:38:24.680Z,91.7
2019-06-10T02:39:24.627Z,91.9
2019-06-10T02:40:28.243Z,91.9
2019-06-10T02:41:29.607Z,92.0
2019-06-10T02:42:30.248Z,91.1
2019-06-10T02:43:32.125Z,90.9
2019-06-10T02:44:32.470Z,90.9
2019-06-10T02:45:33.815Z,91.2
2019-06-10T02:46:31.546Z,92.1
2019-06-10T02:47:36.240Z,93.2
2019-06-10T02:48:34.527Z,93.3
2019-06-10T02:49:50.775Z,92.6
2019-06-10T02:50:36.364Z,92.1
2019-06-10T02:51:35.913Z,91.5
2019-06-10T02:52:38.381Z,91.9
2019-06-10T02:53:37.996Z,91.9
2019-06-10T02:54:39.367Z,92.4
2019-06-10T02:55:43.215Z,93.0
2019-06-10T02:56:44.304Z,93.5
2019-06-10T02:57:44.811Z,94.0
2019-06-10T02:58:45.210Z,93.6
2019-06-10T02:59:46.083Z,94.3
2019-06-10T03:00:48.761Z,94.8
2019-06-10T03:01:48.802Z,94.6
2019-06-10T03:02:52.917Z,95.3
2019-06-10T03:03:54.124Z,95.6
2019-06-10T03:04:53.620Z,95.2
2019-06-10T03:05:54.233Z,94.8
2019-06-10T03:06:55.545Z,94.9
2019-06-10T03:07:56.918Z,95.4
2019-06-10T03:08:58.289Z,95.2
2019-06-10T03:09:59.660Z,94.9
2019-06-10T03:11:03.646Z,94.1
2019-06-10T03:12:04.554Z,95.0
2019-06-10T03:13:03.701Z,95.5
2019-06-10T03:14:05.073Z,95.3
2019-06-10T03:15:06.449Z,96.0
2019-06-10T03:16:07.852Z,95.7
2019-06-10T03:17:09.217Z,96.8
2019-06-10T03:18:12.817Z,97.2
2019-06-10T03:19:13.317Z,96.8
2019-06-10T03:20:13.258Z,97.1
2019-06-10T03:21:15.873Z,96.9
2019-06-10T03:22:16.012Z,96.5
2019-06-10T03:23:17.946Z,96.5
2019-06-10T03:24:19.134Z,96.5
2019-06-10T03:25:20.916Z,96.5
2019-06-10T03:26:23.913Z,95.6
2019-06-10T03:27:23.564Z,96.4
2019-06-10T03:28:25.240Z,96.6
2019-06-10T03:29:26.524Z,96.3
2019-06-10T03:30:41.172Z,95.8
2019-06-10T03:31:35.768Z,95.5
2019-06-10T03:32:35.290Z,95.7
2019-06-10T03:33:40.443Z,95.7
2019-06-10T03:34:41.311Z,95.6
2019-06-10T03:35:33.423Z,95.5
2019-06-10T03:36:34.798Z,95.3
2019-06-10T03:37:36.174Z,95.6
2019-06-10T03:38:37.548Z,95.0
2019-06-10T03:39:38.917Z,94.4
2019-06-10T03:40:40.289Z,94.4
2019-06-10T03:41:42.366Z,94.5
2019-06-10T03:42:43.001Z,94.4
2019-06-10T03:43:44.374Z,94.5
2019-06-10T03:44:45.766Z,94.7
2019-06-10T03:45:47.121Z,94.7
2019-06-10T03:46:48.496Z,95.6
2019-06-10T03:47:49.872Z,95.6
2019-06-10T03:48:52.597Z,95.4
2019-06-10T03:49:55.502Z,95.6
2019-06-10T03:50:53.918Z,94.8
2019-06-10T03:51:55.293Z,95.0
2019-06-10T03:52:56.662Z,94.8
2019-06-10T03:53:58.037Z,94.8
2019-06-10T03:54:59.412Z,95.4
2019-06-10T03:56:02.262Z,95.5
2019-06-10T03:57:02.823Z,96.5
2019-06-10T03:58:03.461Z,96.1
2019-06-10T03:59:04.834Z,97.3
2019-06-10T04:00:10.340Z,98.0
2019-06-10T04:01:07.548Z,97.9
2019-06-10T04:02:08.917Z,97.3
2019-06-10T04:03:11.991Z,96.9
2019-06-10T04:04:13.138Z,96.7
2019-06-10T04:05:13.323Z,97.1
2019-06-10T04:06:14.301Z,96.4
2019-06-10T04:07:15.673Z,96.7
2019-06-10T04:08:17.450Z,96.7
2019-06-10T04:09:19.451Z,96.5
2019-06-10T04:10:19.728Z,96.1
2019-06-10T04:11:23.978Z,96.3
2019-06-10T04:12:24.273Z,96.8
2019-06-10T04:13:25.406Z,96.9
2019-06-10T04:14:26.693Z,96.9
2019-06-10T04:15:28.296Z,96.6
2019-06-10T04:16:28.334Z,97.1
2019-06-10T04:17:29.133Z,96.5
2019-06-10T04:18:32.490Z,96.5
2019-06-10T04:19:32.709Z,97.1
2019-06-10T04:20:33.241Z,97.6
2019-06-10T04:21:34.555Z,98.2
2019-06-10T04:22:35.928Z,97.7
2019-06-10T04:23:37.302Z,97.9
2019-06-10T04:24:38.679Z,97.3
2019-06-10T04:25:42.598Z,97.9
2019-06-10T04:26:43.277Z,97.2
2019-06-10T04:27:42.730Z,96.9
2019-06-10T04:28:44.101Z,97.2
2019-06-10T04:29:45.476Z,97.5
2019-06-10T04:30:46.851Z,97.6
2019-06-10T04:31:48.224Z,98.4
2019-06-10T04:32:49.597Z,98.3
2019-06-10T04:33:52.330Z,98.0
2019-06-10T04:34:52.954Z,98.0
2019-06-10T04:35:53.651Z,98.0
2019-06-10T04:36:55.021Z,98.0
2019-06-10T04:37:56.451Z,98.6
2019-06-10T04:38:57.773Z,99.7
2019-06-10T04:39:59.151Z,99.1
2019-06-10T04:41:03.061Z,99.4
2019-06-10T04:42:02.454Z,98.7
2019-06-10T04:43:03.204Z,97.1
2019-06-10T04:44:04.578Z,97.7
2019-06-10T04:45:05.951Z,98.0
2019-06-10T04:46:07.329Z,97.3
2019-06-10T04:47:08.703Z,96.9
2019-06-10T04:48:12.291Z,96.9
2019-06-10T04:49:13.188Z,97.3
2019-06-10T04:50:23.997Z,97.7
2019-06-10T04:51:14.096Z,98.0
2019-06-10T04:52:15.472Z,97.7
2019-06-10T04:53:16.847Z,97.7
2019-06-10T04:54:18.685Z,98.4
2019-06-10T04:55:21.216Z,98.5
2019-06-10T04:56:22.907Z,97.8
2019-06-10T04:57:23.807Z,96.9
2019-06-10T04:58:24.406Z,96.9
2019-06-10T04:59:27.603Z,96.4
2019-06-10T05:00:27.570Z,95.3
2019-06-10T05:01:28.596Z,94.4
2019-06-10T05:02:29.843Z,94.6
2019-06-10T05:03:32.634Z,94.3
2019-06-10T05:04:32.892Z,94.9
2019-06-10T05:05:33.019Z,94.5
2019-06-10T05:06:34.337Z,94.5
2019-06-10T05:07:37.011Z,95.5
2019-06-10T05:08:37.047Z,95.7
2019-06-10T05:09:38.429Z,95.1
2019-06-10T05:10:39.805Z,94.8
2019-06-10T05:11:42.983Z,94.3
2019-06-10T05:12:43.294Z,93.3
2019-06-10T05:13:43.829Z,93.1
2019-06-10T05:14:45.204Z,92.7
2019-06-10T05:15:46.580Z,92.7
2019-06-10T05:16:47.961Z,92.3
2019-06-10T05:17:49.345Z,91.4
2019-06-10T05:18:54.042Z,91.2
2019-06-10T05:19:53.053Z,91.0
2019-06-10T05:20:58.375Z,90.7
2019-06-10T05:21:54.740Z,91.0
2019-06-10T05:22:56.121Z,91.4
2019-06-10T05:23:57.494Z,92.1
2019-06-10T05:24:58.870Z,91.5
2019-06-10T05:26:02.458Z,90.4
2019-06-10T05:27:02.090Z,90.4
2019-06-10T05:28:02.999Z,90.2
2019-06-10T05:29:04.298Z,90.2
2019-06-10T05:30:05.674Z,90.4
2019-06-10T05:31:07.052Z,89.2
2019-06-10T05:32:08.428Z,89.3
2019-06-10T05:33:09.815Z,88.0
2019-06-10T05:34:12.862Z,87.9
2019-06-10T05:35:12.565Z,87.2
2019-06-10T05:36:13.903Z,86.7
2019-06-10T05:37:15.288Z,86.4
2019-06-10T05:38:16.655Z,86.6
2019-06-10T05:39:18.036Z,85.5
2019-06-10T05:40:19.412Z,84.9
2019-06-10T05:41:24.198Z,83.2
2019-06-10T05:42:24.588Z,82.1
2019-06-10T05:43:24.752Z,81.0
2019-06-10T05:44:25.773Z,81.3
2019-06-10T05:45:27.473Z,82.0
2019-06-10T05:46:28.617Z,81.4
2019-06-10T05:47:29.836Z,80.4
2019-06-10T05:48:30.378Z,79.9
2019-06-10T05:49:35.643Z,80.5
2019-06-10T05:50:33.589Z,80.4
2019-06-10T05:51:35.280Z,80.6
2019-06-10T05:52:35.535Z,80.0
2019-06-10T05:53:36.914Z,80.4
2019-06-10T05:54:38.288Z,79.8
2019-06-10T05:55:39.663Z,80.4
2019-06-10T05:56:43.019Z,80.4
2019-06-10T05:57:42.845Z,80.7
2019-06-10T05:58:43.861Z,79.9
2019-06-10T05:59:45.066Z,78.7
2019-06-10T06:00:46.446Z,76.9
2019-06-10T06:01:47.841Z,76.8
2019-06-10T06:02:49.221Z,76.6
2019-06-10T06:03:52.650Z,75.6
2019-06-10T06:04:53.058Z,75.1
2019-06-10T06:05:53.280Z,75.1
2019-06-10T06:06:54.658Z,75.2
2019-06-10T06:08:04.941Z,73.5
2019-06-10T06:08:57.380Z,73.3
2019-06-10T06:09:58.762Z,73.2
2019-06-10T06:11:00.141Z,72.4
2019-06-10T06:12:02.548Z,72.1
2019-06-10T06:13:03.065Z,72.9
2019-06-10T06:14:04.203Z,73.3
2019-06-10T06:15:05.582Z,74.1
2019-06-10T06:16:06.959Z,73.0
2019-06-10T06:17:08.337Z,72.5
2019-06-10T06:18:10.753Z,72.8
2019-06-10T06:19:12.559Z,73.0
2019-06-10T06:20:13.310Z,72.7
2019-06-10T06:21:25.361Z,71.6
2019-06-10T06:22:15.105Z,71.5
2019-06-10T06:23:16.480Z,71.4
2019-06-10T06:24:17.866Z,71.1
2019-06-10T06:25:19.243Z,71.6
2019-06-10T06:26:23.252Z,71.6
2019-06-10T06:27:22.529Z,71.6
2019-06-10T06:28:23.311Z,70.9
2019-06-10T06:29:24.695Z,71.6
2019-06-10T06:30:26.158Z,71.7
2019-06-10T06:31:28.089Z,72.3
2019-06-10T06:32:28.796Z,73.1
2019-06-10T06:33:32.760Z,72.2
2019-06-10T06:34:33.673Z,71.8
2019-06-10T06:35:35.143Z,70.5
2019-06-10T06:36:36.606Z,70.4
2019-06-10T06:37:37.698Z,70.6
2019-06-10T06:38:38.369Z,72.1
2019-06-10T06:39:38.358Z,72.7
2019-06-10T06:40:39.590Z,73.0
2019-06-10T06:41:42.758Z,72.9
2019-06-10T06:42:43.305Z,72.6
2019-06-10T06:43:45.360Z,73.2
2019-06-10T06:44:45.080Z,72.1
2019-06-10T06:45:46.489Z,72.4
2019-06-10T06:46:47.868Z,72.5
2019-06-10T06:47:49.251Z,71.7
2019-06-10T06:48:52.991Z,71.4
2019-06-10T06:49:53.164Z,71.1
2019-06-10T06:51:04.591Z,71.8
2019-06-10T06:51:59.008Z,71.5
2019-06-10T06:53:23.401Z,71.9
2019-06-10T06:53:57.384Z,71.1
2019-06-10T06:54:58.767Z,71.2
2019-06-10T06:56:00.150Z,71.1
2019-06-10T06:57:03.450Z,70.5
2019-06-10T06:58:03.348Z,70.5
2019-06-10T06:59:04.232Z,70.2
2019-06-10T07:00:34.081Z,70.4
2019-06-10T07:01:11.000Z,70.4
2019-06-10T07:02:08.339Z,70.3
2019-06-10T07:03:09.723Z,70.7
2019-06-10T07:04:12.846Z,69.5
2019-06-10T07:05:12.538Z,69.9
2019-06-10T07:06:13.799Z,69.9
2019-06-10T07:07:15.176Z,69.8
2019-06-10T07:08:16.552Z,70.2
2019-06-10T07:09:17.935Z,70.8
2019-06-10T07:10:19.314Z,70.6
2019-06-10T07:11:22.361Z,69.6
2019-06-10T07:12:23.016Z,67.6
2019-06-10T07:13:23.388Z,67.3
2019-06-10T07:14:24.773Z,67.0
2019-06-10T07:15:26.151Z,66.3
2019-06-10T07:16:27.530Z,66.2
2019-06-10T07:17:28.913Z,67.1
2019-06-10T07:18:32.682Z,66.0
2019-06-10T07:19:34.424Z,65.5
2019-06-10T07:20:36.230Z,66.2
2019-06-10T07:21:40.404Z,65.2
2019-06-10T07:22:37.001Z,65.5
2019-06-10T07:23:39.509Z,62.6
2019-06-10T07:24:40.683Z,62.2
2019-06-10T07:25:42.256Z,61.1
2019-06-10T07:26:49.380Z,61.0
2019-06-10T07:27:45.135Z,59.4
2019-06-10T07:28:46.747Z,59.4
2019-06-10T07:29:47.197Z,59.0
2019-06-10T07:30:51.173Z,59.4
2019-06-10T07:31:50.273Z,59.6
2019-06-10T07:32:49.166Z,60.1
2019-06-10T07:33:52.363Z,57.9
2019-06-10T07:34:52.470Z,58.5
2019-06-10T07:35:56.349Z,57.9
2019-06-10T07:36:54.605Z,58.5
2019-06-10T07:37:55.990Z,59.2
2019-06-10T07:38:57.372Z,59.2
2019-06-10T07:39:58.761Z,58.6
2019-06-10T07:41:02.388Z,59.5
2019-06-10T07:42:03.118Z,59.3
2019-06-10T07:43:02.848Z,59.2
2019-06-10T07:44:04.233Z,58.0
2019-06-10T07:45:05.615Z,58.7
2019-06-10T07:46:07.002Z,58.8
2019-06-10T07:47:08.395Z,58.8
2019-06-10T07:48:12.041Z,58.1
2019-06-10T07:49:13.245Z,58.9
2019-06-10T07:50:12.479Z,56.9
2019-06-10T07:51:13.855Z,58.8
2019-06-10T07:52:19.457Z,57.2
2019-06-10T07:53:16.588Z,58.0
2019-06-10T07:54:17.978Z,58.1
2019-06-10T07:55:19.364Z,56.6
2019-06-10T07:56:23.000Z,55.8
2019-06-10T07:57:22.623Z,56.3
2019-06-10T07:58:23.444Z,54.9
2019-06-10T07:59:24.835Z,56.2
2019-06-10T08:00:26.218Z,56.2
2019-06-10T08:01:27.612Z,53.2
2019-06-10T08:02:29.003Z,52.8
2019-06-10T08:03:32.598Z,52.6
2019-06-10T08:04:33.565Z,52.5
2019-06-10T08:05:34.104Z,52.7
2019-06-10T08:06:35.148Z,51.0
2019-06-10T08:07:36.713Z,51.8
2019-06-10T08:08:37.131Z,51.2
2019-06-10T08:09:39.061Z,52.8
2019-06-10T08:10:42.774Z,49.8
2019-06-10T08:11:43.955Z,50.8
2019-06-10T08:12:44.769Z,52.6
2019-06-10T08:13:46.156Z,51.6
2019-06-10T08:14:45.785Z,51.4
2019-06-10T08:15:48.216Z,52.6
2019-06-10T08:16:48.646Z,52.7
2019-06-10T08:17:49.357Z,51.9
2019-06-10T08:19:16.183Z,51.5
2019-06-10T08:19:54.131Z,52.1
2019-06-10T08:20:53.447Z,54.0
2019-06-10T08:21:54.968Z,53.8
2019-06-10T08:22:57.860Z,52.6
2019-06-10T08:23:57.703Z,52.7
2019-06-10T08:24:59.086Z,52.6
2019-06-10T08:26:03.155Z,51.4
2019-06-10T08:27:02.658Z,50.7
2019-06-10T08:28:03.202Z,50.6
2019-06-10T08:29:04.624Z,49.3
2019-06-10T08:30:18.521Z,50.7
2019-06-10T08:31:07.311Z,50.8
2019-06-10T08:32:08.695Z,50.8
2019-06-10T08:33:10.079Z,50.8
2019-06-10T08:34:13.371Z,49.7
2019-06-10T08:35:12.922Z,49.1
2019-06-10T08:36:14.168Z,47.9
2019-06-10T08:37:15.550Z,47.8
2019-06-10T08:38:16.988Z,49.0
2019-06-10T08:39:18.371Z,50.9
2019-06-10T08:40:19.906Z,50.8
2019-06-10T08:41:23.166Z,49.5
2019-06-10T08:42:23.304Z,49.3
2019-06-10T08:43:24.028Z,49.0
2019-06-10T08:44:25.417Z,49.2
2019-06-10T08:45:26.803Z,49.7
2019-06-10T08:46:28.187Z,50.8
2019-06-10T08:47:29.571Z,51.0
2019-06-10T08:48:32.728Z,49.5
2019-06-10T08:49:32.770Z,50.5
2019-06-10T08:50:33.896Z,49.5
2019-06-10T08:51:35.009Z,49.7
2019-06-10T08:52:51.681Z,48.0
2019-06-10T08:53:37.746Z,48.4
2019-06-10T08:54:40.651Z,48.4
2019-06-10T08:55:42.874Z,48.2
2019-06-10T08:56:45.196Z,48.6
2019-06-10T08:57:46.853Z,47.9
2019-06-10T08:58:46.325Z,48.5
2019-06-10T08:59:47.475Z,47.7
2019-06-10T09:00:49.341Z,48.9
2019-06-10T09:01:52.404Z,48.5
2019-06-10T09:02:53.653Z,48.2
2019-06-10T09:03:53.776Z,49.3
2019-06-10T09:05:49.872Z,50.1
2019-06-10T09:06:50.704Z,49.6
2019-06-10T09:08:23.413Z,49.8
2019-06-10T09:09:22.971Z,48.3
2019-06-10T09:10:24.355Z,48.9
2019-06-10T09:11:25.782Z,49.5
2019-06-10T09:12:32.488Z,50.8
2019-06-10T09:13:28.667Z,51.9
2019-06-10T09:14:32.439Z,51.8
2019-06-10T09:15:32.519Z,49.8
2019-06-10T09:16:33.022Z,51.4
2019-06-10T09:17:34.147Z,49.6
2019-06-10T09:18:35.531Z,49.0
2019-06-10T09:19:36.915Z,47.9
2019-06-10T09:20:39.383Z,45.9
2019-06-10T09:21:42.046Z,46.6
2019-06-10T09:22:42.276Z,47.1
2019-06-10T09:23:46.446Z,47.4
2019-06-10T09:24:47.637Z,48.8
2019-06-10T09:25:48.863Z,46.9
2019-06-10T09:26:48.642Z,45.2
2019-06-10T09:27:49.649Z,47.8
2019-06-10T09:28:52.658Z,47.3
2019-06-10T09:29:54.896Z,46.3
2019-06-10T09:30:58.332Z,46.1
2019-06-10T09:31:55.858Z,45.4
2019-06-10T09:32:56.811Z,46.7
2019-06-10T09:33:57.252Z,44.6
2019-06-10T09:34:58.677Z,44.4
2019-06-10T09:36:00.132Z,46.3
2019-06-10T09:37:03.538Z,43.1
2019-06-10T09:38:03.737Z,43.3
2019-06-10T09:39:04.444Z,43.6
2019-06-10T09:40:05.814Z,42.8
2019-06-10T09:41:07.206Z,42.5
2019-06-10T09:42:08.690Z,44.2
2019-06-10T09:43:10.031Z,44.7
2019-06-10T09:44:12.897Z,44.5
2019-06-10T09:45:12.992Z,43.2
2019-06-10T09:46:14.127Z,41.2
2019-06-10T09:47:15.547Z,41.0
2019-06-10T09:48:16.939Z,41.7
2019-06-10T09:49:18.329Z,44.2
2019-06-10T09:50:19.723Z,44.7
2019-06-10T09:51:22.984Z,44.2
2019-06-10T09:52:23.940Z,43.6
2019-06-10T09:53:33.394Z,43.2
2019-06-10T09:54:25.174Z,44.7
2019-06-10T09:55:26.564Z,44.4
2019-06-10T09:56:27.954Z,44.7
2019-06-10T09:57:29.354Z,43.1
2019-06-10T09:58:32.699Z,43.7
2019-06-10T09:59:32.283Z,44.3
2019-06-10T10:00:33.447Z,43.4
2019-06-10T10:01:34.835Z,43.8
2019-06-10T10:02:36.224Z,43.7
2019-06-10T10:03:37.618Z,43.7
2019-06-10T10:04:39.009Z,47.1
2019-06-10T10:05:46.276Z,46.0
2019-06-10T10:06:44.816Z,44.5
2019-06-10T10:07:46.995Z,43.9
2019-06-10T10:08:46.147Z,44.5
2019-06-10T10:09:48.311Z,43.3
2019-06-10T10:10:50.153Z,44.0
2019-06-10T10:11:49.285Z,41.8
2019-06-10T10:12:51.233Z,42.2
2019-06-10T10:13:52.638Z,41.8
2019-06-10T10:14:55.971Z,41.6
2019-06-10T10:15:54.380Z,42.4
2019-06-10T10:16:59.902Z,40.7
2019-06-10T10:17:56.649Z,40.9
2019-06-10T10:19:00.683Z,41.7
2019-06-10T10:19:59.392Z,41.7
2019-06-10T10:21:03.573Z,41.3
2019-06-10T10:22:03.011Z,40.5
2019-06-10T10:23:03.498Z,41.3
2019-06-10T10:24:10.492Z,40.6
2019-06-10T10:25:06.254Z,41.5
2019-06-10T10:26:07.642Z,40.8
2019-06-10T10:27:10.231Z,41.0
2019-06-10T10:28:10.392Z,40.0
2019-06-10T10:29:13.103Z,38.8
2019-06-10T10:30:13.539Z,37.9
2019-06-10T10:31:14.491Z,39.6
2019-06-10T10:32:15.887Z,38.1
2019-06-10T10:33:17.298Z,38.5
2019-06-10T10:34:18.677Z,36.0
2019-06-10T10:35:20.069Z,38.2
2019-06-10T10:36:22.598Z,38.1
2019-06-10T10:37:22.941Z,37.8
2019-06-10T10:38:24.175Z,37.4
2019-06-10T10:39:25.567Z,38.4
2019-06-10T10:40:26.961Z,37.5
2019-06-10T10:41:28.356Z,38.3
2019-06-10T10:42:42.736Z,38.2
2019-06-10T10:43:34.197Z,38.5
2019-06-10T10:44:32.456Z,37.0
2019-06-10T10:45:33.808Z,37.4
2019-06-10T10:46:35.199Z,36.3
2019-06-10T10:47:36.596Z,36.4
2019-06-10T10:48:37.991Z,35.6
2019-06-10T10:49:39.381Z,35.4
2019-06-10T10:50:40.776Z,36.8
2019-06-10T10:51:42.802Z,36.8
2019-06-10T10:52:45.184Z,36.3
2019-06-10T10:53:48.542Z,36.3
2019-06-10T10:54:46.772Z,36.0
2019-06-10T10:55:47.779Z,36.1
2019-06-10T10:56:49.639Z,36.0
2019-06-10T10:57:52.847Z,37.1
2019-06-10T10:58:55.644Z,36.0
2019-06-10T10:59:55.922Z,36.6
2019-06-10T11:00:57.572Z,36.6
2019-06-10T11:01:55.940Z,37.1
2019-06-10T11:02:57.337Z,37.0
2019-06-10T11:03:59.436Z,35.5
2019-06-10T11:05:00.344Z,37.2
2019-06-10T11:06:01.803Z,37.4
2019-06-10T11:07:03.124Z,35.5
2019-06-10T11:08:04.517Z,36.9
2019-06-10T11:09:05.914Z,36.0
2019-06-10T11:10:07.316Z,36.1
2019-06-10T11:11:08.705Z,37.2
2019-06-10T11:12:10.101Z,34.5
2019-06-10T11:13:11.497Z,35.1
2019-06-10T11:14:15.015Z,37.6
2019-06-10T11:15:14.261Z,38.4
2019-06-10T11:16:15.690Z,37.7
2019-06-10T11:17:17.080Z,38.0
2019-06-10T11:18:18.653Z,38.3
2019-06-10T11:19:22.121Z,38.1
2019-06-10T11:20:22.522Z,37.6
2019-06-10T11:21:22.838Z,39.0
2019-06-10T11:22:23.906Z,40.1
2019-06-10T11:23:25.302Z,39.9
2019-06-10T11:24:36.789Z,40.4
2019-06-10T11:25:28.052Z,39.6
2019-06-10T11:26:29.443Z,40.1
2019-06-10T11:27:33.004Z,39.4
2019-06-10T11:28:32.342Z,38.8
2019-06-10T11:29:33.550Z,38.7
2019-06-10T11:30:34.944Z,39.6
2019-06-10T11:31:36.334Z,40.8
2019-06-10T11:32:38.096Z,41.3
2019-06-10T11:33:39.087Z,41.8
2019-06-10T11:34:42.739Z,42.2
2019-06-10T11:35:42.788Z,42.3
2019-06-10T11:36:43.184Z,43.3
2019-06-10T11:37:44.574Z,43.6
2019-06-10T11:38:46.253Z,44.8
2019-06-10T11:39:48.052Z,44.4
2019-06-10T11:40:49.838Z,45.0
2019-06-10T11:41:50.901Z,45.1
2019-06-10T11:42:54.207Z,45.9
2019-06-10T11:43:55.035Z,47.3
2019-06-10T11:44:57.313Z,47.7
2019-06-10T11:46:03.007Z,48.4
2019-06-10T11:46:58.101Z,49.2
2019-06-10T11:47:58.297Z,47.3
2019-06-10T11:48:59.518Z,47.5
2019-06-10T11:50:02.828Z,47.7
2019-06-10T11:51:04.620Z,48.8
2019-06-10T11:52:03.638Z,48.7
2019-06-10T11:53:05.031Z,48.8
2019-06-10T11:54:06.417Z,47.1
2019-06-10T11:55:15.291Z,48.6
2019-06-10T11:56:09.168Z,47.2
2019-06-10T11:57:12.365Z,47.5
2019-06-10T11:58:11.917Z,46.0
2019-06-10T11:59:13.598Z,46.5
2019-06-10T12:00:17.319Z,46.6
2019-06-10T12:01:16.005Z,47.7
2019-06-10T12:02:17.392Z,46.5
2019-06-10T12:03:18.780Z,46.3
2019-06-10T12:04:20.170Z,46.6
2019-06-10T12:05:23.397Z,47.2
2019-06-10T12:06:23.036Z,47.7
2019-06-10T12:07:24.256Z,46.6
2019-06-10T12:08:25.641Z,46.6
2019-06-10T12:09:27.028Z,46.9
2019-06-10T12:10:28.428Z,47.4
2019-06-10T12:11:29.806Z,47.2
2019-06-10T12:12:33.519Z,47.0
2019-06-10T12:13:34.199Z,47.4
2019-06-10T12:14:34.004Z,47.6
2019-06-10T12:16:09.671Z,47.3
2019-06-10T12:17:17.718Z,48.5
2019-06-10T12:17:47.099Z,48.4
2019-06-10T12:18:39.302Z,46.6
2019-06-10T12:19:43.186Z,47.3
2019-06-10T12:20:42.665Z,48.6
2019-06-10T12:21:43.647Z,47.0
2019-06-10T12:22:44.736Z,48.8
2019-06-10T12:23:46.121Z,48.6
2019-06-10T12:24:47.505Z,47.9
2019-06-10T12:25:49.618Z,48.6
2019-06-10T12:26:50.238Z,48.0
2019-06-10T12:27:55.058Z,48.3
2019-06-10T12:28:54.607Z,49.0
2019-06-10T12:29:56.276Z,49.8
2019-06-10T12:30:59.286Z,50.8
2019-06-10T12:32:00.108Z,51.4
2019-06-10T12:33:00.434Z,51.4
2019-06-10T12:34:02.254Z,52.1
2019-06-10T12:35:05.000Z,53.1
2019-06-10T12:36:06.178Z,52.4
2019-06-10T12:37:10.733Z,53.6
2019-06-10T12:38:06.295Z,54.8
2019-06-10T12:39:10.542Z,54.7
2019-06-10T12:40:07.979Z,54.6
2019-06-10T12:41:10.543Z,54.4
2019-06-10T12:42:13.489Z,53.9
2019-06-10T12:43:12.673Z,53.7
2019-06-10T12:44:13.379Z,52.9
2019-06-10T12:45:14.760Z,53.2
2019-06-10T12:46:16.152Z,52.6
2019-06-10T12:47:17.539Z,53.0
2019-06-10T12:48:18.932Z,52.7
2019-06-10T12:49:20.310Z,52.3
2019-06-10T12:50:21.713Z,52.7
2019-06-10T12:51:23.104Z,52.8
2019-06-10T12:52:24.493Z,51.2
2019-06-10T12:53:25.882Z,51.2
2019-06-10T12:54:27.293Z,51.2
2019-06-10T12:55:42.150Z,50.2
2019-06-10T12:56:30.004Z,50.1
2019-06-10T12:57:32.529Z,48.7
2019-06-10T12:58:33.452Z,49.8
2019-06-10T12:59:34.091Z,47.9
2019-06-10T13:00:35.472Z,48.8
2019-06-10T13:01:36.864Z,47.7
2019-06-10T13:02:38.281Z,46.8
2019-06-10T13:03:39.644Z,46.6
2019-06-10T13:04:42.947Z,47.7
2019-06-10T13:05:42.697Z,47.1
2019-06-10T13:06:43.751Z,47.3
2019-06-10T13:07:45.142Z,48.4
2019-06-10T13:08:46.561Z,49.0
2019-06-10T13:09:47.947Z,48.7
2019-06-10T13:10:49.334Z,48.8
2019-06-10T13:11:52.593Z,49.2
2019-06-10T13:12:53.096Z,49.5
2019-06-10T13:13:53.422Z,49.9
2019-06-10T13:14:56.233Z,49.0
2019-06-10T13:15:56.322Z,48.2
2019-06-10T13:16:57.929Z,49.4
2019-06-10T13:18:00.202Z,48.7
2019-06-10T13:19:00.234Z,48.8
2019-06-10T13:20:04.376Z,48.8
2019-06-10T13:21:09.969Z,48.2
2019-06-10T13:22:05.710Z,48.6
2019-06-10T13:23:17.240Z,48.3
2019-06-10T13:24:07.812Z,48.9
2019-06-10T13:25:08.372Z,48.6
2019-06-10T13:26:13.146Z,47.3
2019-06-10T13:27:11.109Z,46.8
2019-06-10T13:28:12.495Z,47.6
2019-06-10T13:29:17.385Z,48.9
2019-06-10T13:30:15.230Z,49.7
2019-06-10T13:31:16.613Z,49.8
2019-06-10T13:32:18.004Z,49.8
2019-06-10T13:33:19.393Z,49.6
2019-06-10T13:34:22.145Z,50.8
2019-06-10T13:35:23.030Z,50.8
2019-06-10T13:36:25.987Z,51.4
2019-06-10T13:37:24.846Z,52.4
2019-06-10T13:38:26.238Z,51.5